West Branch, Michigan
Current Conditions -  °F | °C
As of 6:53 AM on Thursday 27 Nov 2014 (Local Time) from KHTL Reporting Station
Light Snow Light Snow  
Wind Chill: 17°   Ceiling: 5500
Heat Index: 25°   Visibility: 7mi
Dew Point: 22°   Wind: 7mph
Humidity: 88%   Direction: 310°NW
Pressure: 30.1"   Gusts: NA
Location:  44.28°N, 84.24°W
Report Text: KHTL 271153Z AUTO 31006KT 7SM -SN SCT010 BKN055 OVC100 M04/M06 A3010 RMK AO2 SLP210 P0001 60001 70001 T10391056 11033 21039 53002
Loading
Personal Weather Stations






























Interactive Weather Map New forecast layout! Learn more

10-Day Weather Forecast

Advertisements
Track Severe Weather on mobile